• Join FlightAware (Why Join?)
  • Login
  • US Flag 
11:19PM EST


 

Airport Tracker/Info


-or-


 

Live Flight TrackerFlight Track Log ✈ THY1873 ✈ 14-Oct-2013 ✈ LTBA / IST - LIMC / MXP

Flight Track Log - Related Links

Times and Time Zones

All times are in EDT time to prevent confusion due to time zone crossing. See the THY1873 flight status page for this flight to view local times or setup timezone preferences in your user account.

Time Position Orientation Groundspeed Altitude Reporting Facility
EDT Latitude Longitude Course Direction KTS MPH feet Rate Location/Type
01:32AM 41.1551 28.2963 294° West  Level Estimated
01:33AM 41.1992 28.1647 294° West  Level Estimated
01:34AM 41.2433 28.0329 294° West  Level Estimated
01:35AM 41.2871 27.9009 294° West  Level Estimated
01:36AM 41.3308 27.7687 294° West  Level Estimated
01:37AM 41.3744 27.6363 294° West  Level Estimated
01:38AM 41.4178 27.5038 294° West  Level Estimated
01:39AM 41.4611 27.3711 294° West  Level Estimated
01:40AM 41.5042 27.2382 293° West  Level Estimated
01:41AM 41.5471 27.1051 293° West  Level Estimated
01:42AM 41.5899 26.9719 293° West  Level Estimated
01:43AM 41.6326 26.8385 293° West  Level Estimated
01:44AM 41.6751 26.7049 293° West  Level Estimated
01:45AM 41.7174 26.5711 293° West  Level Estimated
01:46AM 41.7596 26.4372 293° West  Level Estimated
01:47AM 41.8016 26.3031 293° West  Level Estimated
01:48AM 41.8435 26.1688 293° West  Level Estimated
01:49AM 41.8852 26.0343 293° West  Level Estimated
01:50AM 41.9268 25.8997 293° West  Level Estimated
01:51AM 41.9682 25.7648 292° West  Level Estimated
01:52AM 42.0094 25.6298 292° West  Level Estimated
01:53AM 42.0505 25.4947 292° West  Level Estimated
01:54AM 42.0914 25.3593 292° West  Level Estimated
01:55AM 42.1322 25.2238 292° West  Level Estimated
01:56AM 42.1728 25.0881 292° West  Level Estimated
01:57AM 42.2132 24.9522 292° West  Level Estimated
01:58AM 42.2535 24.8162 292° West  Level Estimated
01:59AM 42.2936 24.6800 292° West  Level Estimated
02:00AM 42.3336 24.5436 292° West  Level Estimated
02:01AM 42.3734 24.4070 292° West  Level Estimated
02:02AM 42.4130 24.2703 291° West  Level Estimated
02:03AM 42.4525 24.1334 291° West  Level Estimated
02:04AM 42.4918 23.9963 291° West  Level Estimated
02:05AM 42.5310 23.8591 291° West  Level Estimated
02:06AM 42.5700 23.7217 291° West  Level Estimated
02:07AM 42.6088 23.5841 291° West  Level Estimated
02:08AM 42.6474 23.4463 291° West  Level Estimated
02:09AM 42.6859 23.3084 291° West  Level Estimated
02:10AM 42.7243 23.1702 291° West  Level Estimated
02:11AM 42.7624 23.0320 291° West  Level Estimated
02:12AM 42.8004 22.8935 291° West  Level Estimated
02:13AM 42.8382 22.7549 290° West  Level Estimated
02:14AM 42.8759 22.6161 290° West  Level Estimated
02:15AM 42.9134 22.4771 290° West  Level Estimated
02:16AM 42.9507 22.3380 290° West  Level Estimated
02:17AM 42.9879 22.1987 290° West  Level Estimated
02:18AM 43.0248 22.0593 290° West  Level Estimated
02:19AM 43.0616 21.9196 290° West  Level Estimated
02:20AM 43.0983 21.7799 290° West  Level Estimated
02:21AM 43.1348 21.6399 290° West  Level Estimated
02:22AM 43.1711 21.4998 290° West  Level Estimated
02:23AM 43.2072 21.3595 290° West  Level Estimated
02:24AM 43.2431 21.2190 289° West  Level Estimated
02:25AM 43.2789 21.0784 289° West  Level Estimated
02:26AM 43.3146 20.9376 289° West  Level Estimated
02:27AM 43.3500 20.7966 289° West  Level Estimated
02:28AM 43.3853 20.6555 289° West  Level Estimated
02:29AM 43.4204 20.5142 289° West  Level Estimated
02:30AM 43.4553 20.3728 289° West  Level Estimated
02:31AM 43.4900 20.2311 289° West  Level Estimated
02:32AM 43.5246 20.0894 289° West  Level Estimated
02:33AM 43.5590 19.9474 289° West  Level Estimated
02:34AM 43.5932 19.8053 288° West  Level Estimated
02:35AM 43.6273 19.6631 288° West  Level Estimated
02:36AM 43.6612 19.5207 288° West  Level Estimated
02:37AM 43.6948 19.3781 288° West  Level Estimated
02:38AM 43.7284 19.2353 288° West  Level Estimated
02:39AM 43.7617 19.0924 288° West  Level Estimated
02:40AM 43.7948 18.9494 288° West  Level Estimated
02:41AM 43.8278 18.8062 288° West  Level Estimated
02:42AM 43.8606 18.6628 288° West  Level Estimated
02:43AM 43.8932 18.5192 288° West  Level Estimated
02:44AM 43.9257 18.3755 287° West  Level Estimated
02:45AM 43.9580 18.2317 287° West  Level Estimated
02:46AM 43.9900 18.0877 287° West  Level Estimated
02:47AM 44.0219 17.9435 287° West  Level Estimated
02:48AM 44.0536 17.7992 287° West  Level Estimated
02:49AM 44.0852 17.6548 287° West  Level Estimated
02:50AM 44.1165 17.5101 287° West  Level Estimated
02:51AM 44.1477 17.3654 287° West  Level Estimated
02:52AM 44.1787 17.2204 287° West  Level Estimated
02:53AM 44.2095 17.0754 287° West  Level Estimated
02:54AM 44.2401 16.9301 286° West  Level Estimated
02:55AM 44.2706 16.7847 286° West  Level Estimated
02:56AM 44.3008 16.6392 286° West  Level Estimated
02:57AM 44.3309 16.4935 286° West  Level Estimated
02:58AM 44.3608 16.3477 286° West  Level Estimated
02:59AM 44.3905 16.2017 286° West  Level Estimated
03:00AM 44.4200 16.0556 286° West  Level Estimated
03:01AM 44.4493 15.9093 286° West  Level Estimated
03:02AM 44.4784 15.7629 286° West  Level Estimated
03:03AM 44.5074 15.6164 286° West  Level Estimated
03:04AM 44.5361 15.4696 285° West  Level Estimated
03:05AM 44.5647 15.3228 285° West  Level Estimated
03:06AM 44.5931 15.1758 285° West  Level Estimated
03:07AM 44.6213 15.0287 285° West  Level Estimated
03:08AM 44.6493 14.8814 285° West  Level Estimated
03:09AM 44.6771 14.7339 285° West  Level Estimated
03:10AM 44.7048 14.5864 285° West  Level Estimated
03:11AM 44.7322 14.4387 285° West  Level Estimated
03:12AM 44.7594 14.2908 285° West  Level Estimated
03:13AM 44.7865 14.1428 284° West  Level Estimated
03:14AM 44.8134 13.9947 284° West  Level Estimated
03:15AM 44.8400 13.8464 284° West  Level Estimated
03:16AM 44.8665 13.6980 284° West  Level Estimated
03:17AM 44.8928 13.5495 284° West  Level Estimated
03:18AM 44.9189 13.4008 284° West  Level Estimated
03:19AM 44.9448 13.2520 284° West  Level Estimated
03:20AM 44.9705 13.1031 284° West  Level Estimated
03:21AM 44.9960 12.9540 284° West  Level Estimated
03:22AM 45.0214 12.8048 284° West  Level Estimated
03:23AM 45.0465 12.6555 283° West  Level Estimated
03:24AM 45.0714 12.5060 283° West  Level Estimated
03:25AM 45.0961 12.3564 283° West  Level Estimated
03:26AM 45.1207 12.2067 283° West  Level Estimated
03:27AM 45.1450 12.0568 283° West  Level Estimated
03:28AM 45.1692 11.9069 283° West  Level Estimated
03:29AM 45.1931 11.7568 283° West  Level Estimated
03:30AM 45.2169 11.6065 283° West  Level Estimated
03:31AM 45.2405 11.4562 283° West  Level Estimated
03:32AM 45.2638 11.3057 282° West  Level Estimated
03:33AM 45.2870 11.1551 282° West  Level Estimated
03:34AM 45.3100 11.0043 282° West  Level Estimated
03:35AM 45.3327 10.8535 282° West  Level Estimated
03:36AM 45.3553 10.7025 282° West  Level Estimated
03:37AM 45.3777 10.5514 282° West  Level Estimated
03:38AM 45.3998 10.4002 282° West  Level Estimated
03:39AM 45.4218 10.2489 282° West  Level Estimated
03:40AM 45.4436 10.0974 282° West  Level Estimated
03:41AM 45.4651 9.9459 282° West  Level Estimated
03:42AM 45.4865 9.7942 281° West  Level Estimated
03:43AM 45.5077 9.6424 281° West  Level Estimated
03:44AM 45.5286 9.4905 281° West  Level Estimated
03:45AM 45.5494 9.3385 281° West  Level Estimated
03:46AM 45.5700 9.1863 281° West  Level Estimated
03:47AM 45.5903 9.0341 281° West  Level Estimated
03:48AM 45.6105 8.8818 281° West  Level Estimated
03:49AM 45.6305 8.7293 281° West  Level Estimated
03:50AM 45.6306 8.7281 281° West  Level Estimated
03:51AM 45.6306 8.7281 170° South  Level Estimated
03:52AM 45.6306 8.7281 170° South  Level Estimated
03:53AM 45.6306 8.7281 170° South  Level Estimated
03:54AM 45.6306 8.7281 170° South  Level Estimated
03:55AM 45.6306 8.7281 170° South  Level Estimated
03:56AM 45.6306 8.7281 170° South  Level Estimated
03:57AM 45.6306 8.7281 170° South  Level Estimated
03:58AM 45.6306 8.7281 170° South  Level Estimated
03:59AM 45.6306 8.7281 170° South  Level Estimated
04:00AM 45.6306 8.7281 170° South  Level Estimated
04:01AM 45.6306 8.7281 170° South  Level Estimated
04:02AM 45.6306 8.7281 170° South  Level Estimated
04:03AM 45.6306 8.7281 170° South  Level Estimated
04:04AM 45.6306 8.7281 170° South  Level Estimated
04:05AM 45.6306 8.7281 170° South  Level Estimated